createdAt,value
2023-05-22T00:01:04.938Z,4.60
2023-05-22T00:03:36.575Z,4.50
2023-05-22T00:06:06.263Z,4.63
2023-05-22T00:08:34.435Z,4.50
2023-05-22T00:11:03.686Z,4.80
2023-05-22T00:13:32.031Z,5.20
2023-05-22T00:16:00.071Z,5.10
2023-05-22T00:18:28.249Z,4.60
2023-05-22T00:20:58.225Z,5.00
2023-05-22T00:23:27.975Z,5.33
2023-05-22T00:25:56.044Z,4.80
2023-05-22T00:28:24.078Z,4.57
2023-05-22T00:30:53.621Z,4.40
2023-05-22T00:33:21.658Z,4.83
2023-05-22T00:35:49.798Z,4.97
2023-05-22T00:38:34.398Z,4.80
2023-05-22T00:41:03.775Z,4.80
2023-05-22T00:43:32.058Z,4.73
2023-05-22T00:46:00.190Z,4.70
2023-05-22T00:48:28.297Z,4.93
2023-05-22T00:50:58.295Z,5.20
2023-05-22T00:53:28.238Z,4.80
2023-05-22T00:55:59.839Z,4.90
2023-05-22T00:58:28.564Z,5.10
2023-05-22T01:00:57.530Z,4.93
2023-05-22T01:03:27.534Z,5.07
2023-05-22T01:05:56.503Z,5.10
2023-05-22T01:08:24.765Z,5.50
2023-05-22T01:11:03.213Z,5.37
2023-05-22T01:13:41.229Z,5.53
2023-05-22T01:16:14.451Z,5.27
2023-05-22T01:18:47.996Z,5.33
2023-05-22T01:21:23.161Z,5.43
2023-05-22T01:24:16.298Z,5.97
2023-05-22T01:27:07.819Z,5.43
2023-05-22T01:29:46.322Z,5.60
2023-05-22T01:32:21.930Z,5.77
2023-05-22T01:34:55.668Z,5.37
2023-05-22T01:37:25.508Z,5.53
2023-05-22T01:39:54.564Z,5.87
2023-05-22T01:42:23.115Z,5.53
2023-05-22T01:44:51.687Z,6.10
2023-05-22T01:47:22.293Z,6.30
2023-05-22T01:49:52.032Z,6.30
2023-05-22T01:52:26.740Z,6.13
2023-05-22T01:55:00.252Z,5.90
2023-05-22T01:57:35.177Z,6.10
2023-05-22T02:00:10.038Z,6.10
2023-05-22T02:02:51.983Z,6.80
2023-05-22T02:05:23.749Z,6.53
2023-05-22T02:07:54.033Z,6.57
2023-05-22T02:10:23.264Z,6.60
2023-05-22T02:12:51.344Z,6.23
2023-05-22T02:15:19.944Z,5.87
2023-05-22T02:17:53.341Z,6.47
2023-05-22T02:20:21.834Z,6.67
2023-05-22T02:22:50.031Z,7.07
2023-05-22T02:25:18.321Z,6.87
2023-05-22T02:27:49.661Z,6.93
2023-05-22T02:30:17.794Z,6.53
2023-05-22T02:32:51.079Z,7.00
2023-05-22T02:35:19.152Z,7.30
2023-05-22T02:37:47.206Z,7.10
2023-05-22T02:40:15.802Z,7.27
2023-05-22T02:42:43.920Z,7.20
2023-05-22T02:45:12.983Z,7.33
2023-05-22T02:47:42.551Z,7.00
2023-05-22T02:50:13.133Z,7.30
2023-05-22T02:52:41.453Z,7.43
2023-05-22T02:55:10.639Z,7.67
2023-05-22T02:57:38.734Z,7.97
2023-05-22T03:00:10.730Z,7.70
2023-05-22T03:02:39.036Z,7.50
2023-05-22T03:05:08.184Z,7.80
2023-05-22T03:07:37.762Z,8.10
2023-05-22T03:10:06.991Z,8.30
2023-05-22T03:12:35.164Z,9.10
2023-05-22T03:15:03.329Z,8.03
2023-05-22T03:17:32.400Z,8.30
2023-05-22T03:20:00.524Z,8.80
2023-05-22T03:22:28.676Z,8.67
2023-05-22T03:24:58.173Z,8.47
2023-05-22T03:27:26.339Z,8.83
2023-05-22T03:29:54.540Z,8.40
2023-05-22T03:32:23.961Z,8.57
2023-05-22T03:34:52.332Z,7.90
2023-05-22T03:37:20.703Z,8.00
2023-05-22T03:39:48.883Z,7.60
2023-05-22T03:42:28.947Z,8.30
2023-05-22T03:44:58.287Z,7.60
2023-05-22T03:47:27.202Z,7.80
2023-05-22T03:49:55.306Z,8.30
2023-05-22T03:52:24.037Z,8.10
2023-05-22T03:54:53.575Z,7.67
2023-05-22T03:57:21.776Z,8.47
2023-05-22T03:59:51.389Z,8.37
2023-05-22T04:02:20.391Z,7.90
2023-05-22T04:04:48.577Z,8.13
2023-05-22T04:07:18.554Z,7.47
2023-05-22T04:09:46.736Z,7.53
2023-05-22T04:12:14.786Z,7.20
2023-05-22T04:14:43.999Z,7.50
2023-05-22T04:17:13.453Z,6.70
2023-05-22T04:19:41.510Z,8.57
2023-05-22T04:22:09.513Z,7.57
2023-05-22T04:24:39.886Z,7.90
2023-05-22T04:27:08.048Z,7.67
2023-05-22T04:29:36.439Z,7.73
2023-05-22T04:32:06.393Z,7.97
2023-05-22T04:34:37.614Z,7.60
2023-05-22T04:37:06.378Z,7.53
2023-05-22T04:39:34.574Z,7.90
2023-05-22T04:42:05.990Z,7.03
2023-05-22T04:44:42.968Z,6.97
2023-05-22T04:47:14.653Z,7.00
2023-05-22T04:49:45.712Z,7.53
2023-05-22T04:52:14.159Z,7.20
2023-05-22T04:54:44.492Z,7.57
2023-05-22T04:57:13.687Z,7.77
2023-05-22T04:59:42.185Z,7.93
2023-05-22T05:02:10.586Z,8.20
2023-05-22T05:04:39.082Z,7.47
2023-05-22T05:07:09.085Z,7.50
2023-05-22T05:09:37.314Z,7.83
2023-05-22T05:12:05.936Z,7.77
2023-05-22T05:14:34.063Z,7.63
2023-05-22T05:17:02.596Z,6.93
2023-05-22T05:19:30.916Z,6.80
2023-05-22T05:21:59.952Z,6.77
2023-05-22T05:24:29.812Z,7.10
2023-05-22T05:26:58.012Z,7.53
2023-05-22T05:29:26.544Z,7.63
2023-05-22T05:32:00.186Z,6.70
2023-05-22T05:34:41.027Z,7.15
2023-05-22T05:37:21.446Z,7.13
2023-05-22T05:39:51.861Z,7.78
2023-05-22T05:42:21.022Z,6.53
2023-05-22T05:44:50.153Z,5.97
2023-05-22T05:47:18.806Z,6.53
2023-05-22T05:49:46.890Z,5.85
2023-05-22T05:52:16.617Z,5.40
2023-05-22T05:54:47.535Z,6.20
2023-05-22T05:57:22.002Z,5.63
2023-05-22T05:59:51.947Z,5.28
2023-05-22T06:02:39.316Z,5.80
2023-05-22T06:05:13.681Z,5.43
2023-05-22T06:07:42.346Z,6.03
2023-05-22T06:10:13.085Z,5.85
2023-05-22T06:12:52.562Z,6.13
2023-05-22T06:15:21.293Z,5.55
2023-05-22T06:17:49.375Z,5.80
2023-05-22T06:20:17.624Z,5.30
2023-05-22T06:22:45.768Z,5.15
2023-05-22T06:25:13.929Z,4.90
2023-05-22T06:27:42.690Z,5.55
2023-05-22T06:30:14.814Z,5.20
2023-05-22T06:32:43.945Z,5.30
2023-05-22T06:35:12.502Z,5.45
2023-05-22T06:37:43.183Z,5.68
2023-05-22T06:40:12.410Z,5.88
2023-05-22T06:42:50.792Z,5.40
2023-05-22T06:45:29.128Z,5.35
2023-05-22T06:48:17.514Z,5.03
2023-05-22T06:51:11.708Z,5.65
2023-05-22T06:53:41.973Z,5.93
2023-05-22T06:56:15.425Z,4.88
2023-05-22T06:59:06.737Z,5.57
2023-05-22T07:01:51.547Z,5.65
2023-05-22T07:04:38.894Z,5.50
2023-05-22T07:07:14.426Z,5.65
2023-05-22T07:09:42.533Z,5.10
2023-05-22T07:12:11.224Z,5.53
2023-05-22T07:14:39.435Z,5.90
2023-05-22T07:17:09.025Z,5.40
2023-05-22T07:19:42.470Z,5.45
2023-05-22T07:22:10.722Z,5.15
2023-05-22T07:24:40.790Z,5.30
2023-05-22T07:27:09.379Z,4.93
2023-05-22T07:29:38.081Z,5.03
2023-05-22T07:32:09.401Z,4.88
2023-05-22T07:34:37.978Z,5.13
2023-05-22T07:37:09.844Z,6.28
2023-05-22T07:39:38.194Z,5.30
2023-05-22T07:42:07.837Z,5.43
2023-05-22T07:44:42.245Z,5.35
2023-05-22T07:47:11.839Z,5.38
2023-05-22T07:49:42.343Z,5.10
2023-05-22T07:52:12.871Z,5.32
2023-05-22T07:54:42.419Z,5.72
2023-05-22T07:57:12.727Z,5.20
2023-05-22T07:59:44.142Z,6.40
2023-05-22T08:02:14.442Z,4.93
2023-05-22T08:04:42.727Z,5.35
2023-05-22T08:07:11.528Z,5.20
2023-05-22T08:09:40.071Z,5.65
2023-05-22T08:12:09.253Z,5.35
2023-05-22T08:14:37.854Z,5.28
2023-05-22T08:17:06.447Z,5.15
2023-05-22T08:19:36.346Z,5.60
2023-05-22T08:22:04.590Z,5.07
2023-05-22T08:24:32.615Z,6.10
2023-05-22T08:27:00.766Z,5.40
2023-05-22T08:29:30.017Z,5.10
2023-05-22T08:31:58.435Z,5.45
2023-05-22T08:34:27.047Z,5.55
2023-05-22T08:36:56.487Z,6.03
2023-05-22T08:39:24.566Z,5.47
2023-05-22T08:41:53.027Z,4.88
2023-05-22T08:44:21.128Z,5.60
2023-05-22T08:46:49.645Z,5.32
2023-05-22T08:49:19.127Z,5.07
2023-05-22T08:51:49.613Z,5.57
2023-05-22T08:54:22.725Z,4.90
2023-05-22T08:56:56.679Z,5.38
2023-05-22T08:59:25.949Z,5.25
2023-05-22T09:01:54.933Z,5.35
2023-05-22T09:04:24.328Z,5.00
2023-05-22T09:06:53.160Z,4.68
2023-05-22T09:09:22.671Z,5.22
2023-05-22T09:11:50.996Z,4.72
2023-05-22T09:14:20.000Z,5.35
2023-05-22T09:16:49.570Z,4.22
2023-05-22T09:19:17.824Z,5.60
2023-05-22T09:21:46.282Z,5.00
2023-05-22T09:24:14.615Z,5.18
2023-05-22T09:26:43.995Z,4.50
2023-05-22T09:29:12.283Z,4.75
2023-05-22T09:31:44.031Z,4.85
2023-05-22T09:34:15.791Z,4.70
2023-05-22T09:36:44.314Z,4.28
2023-05-22T09:39:12.545Z,4.97
2023-05-22T09:41:41.399Z,4.63
2023-05-22T09:44:17.327Z,5.13
2023-05-22T09:46:47.560Z,4.22
2023-05-22T09:49:17.231Z,4.38
2023-05-22T09:51:48.878Z,4.57
2023-05-22T09:54:18.004Z,5.10
2023-05-22T09:56:50.278Z,5.85
2023-05-22T09:59:23.690Z,5.07
2023-05-22T10:01:52.279Z,4.90
2023-05-22T10:04:23.651Z,4.53
2023-05-22T10:06:54.013Z,4.43
2023-05-22T10:09:25.898Z,4.63
2023-05-22T10:11:56.278Z,5.03
2023-05-22T10:14:28.822Z,4.82
2023-05-22T10:17:02.176Z,4.72
2023-05-22T10:19:32.907Z,4.65
2023-05-22T10:22:02.558Z,4.72
2023-05-22T10:24:30.980Z,4.82
2023-05-22T10:26:59.252Z,6.03
2023-05-22T10:29:35.359Z,5.30
2023-05-22T10:32:09.279Z,5.38
2023-05-22T10:34:55.592Z,5.05
2023-05-22T10:37:39.752Z,6.03
2023-05-22T10:40:12.055Z,4.55
2023-05-22T10:42:40.773Z,6.15
2023-05-22T10:45:12.327Z,5.40
2023-05-22T10:47:40.630Z,4.60
2023-05-22T10:50:11.031Z,4.25
2023-05-22T10:52:39.861Z,4.50
2023-05-22T10:55:09.260Z,4.53
2023-05-22T10:57:39.934Z,6.07
2023-05-22T11:00:14.180Z,4.85
2023-05-22T11:02:47.116Z,4.72
2023-05-22T11:05:36.499Z,5.05
2023-05-22T11:08:38.760Z,4.50
2023-05-22T11:11:15.684Z,4.80
2023-05-22T11:13:43.840Z,4.20
2023-05-22T11:16:13.785Z,4.50
2023-05-22T11:18:41.997Z,5.10
2023-05-22T11:21:13.779Z,5.60
2023-05-22T11:23:42.803Z,5.00
2023-05-22T11:26:22.556Z,6.07
2023-05-22T11:28:52.009Z,5.45
2023-05-22T11:31:23.313Z,4.68
2023-05-22T11:33:51.609Z,4.70
2023-05-22T11:36:20.112Z,4.60
2023-05-22T11:38:48.263Z,5.30
2023-05-22T11:41:17.238Z,4.50
2023-05-22T11:43:45.393Z,5.00
2023-05-22T11:46:14.305Z,4.45
2023-05-22T11:48:44.322Z,4.25
2023-05-22T11:51:12.934Z,4.60
2023-05-22T11:53:42.646Z,4.07
2023-05-22T11:56:10.692Z,4.18
2023-05-22T11:58:38.806Z,5.00
2023-05-22T12:01:07.724Z,4.65
2023-05-22T12:03:35.884Z,4.53
2023-05-22T12:06:06.722Z,4.68
2023-05-22T12:08:35.491Z,4.30
2023-05-22T12:11:06.154Z,4.93
2023-05-22T12:13:34.311Z,4.97
2023-05-22T12:16:02.440Z,4.30
2023-05-22T12:18:37.918Z,4.70
2023-05-22T12:21:09.059Z,4.53
2023-05-22T12:23:37.203Z,4.50
2023-05-22T12:26:10.456Z,4.18
2023-05-22T12:28:40.077Z,4.50
2023-05-22T12:31:08.128Z,4.90
2023-05-22T12:33:36.317Z,4.88
2023-05-22T12:36:10.346Z,5.43
2023-05-22T12:38:39.956Z,5.38
2023-05-22T12:41:08.410Z,4.60
2023-05-22T12:43:36.713Z,4.10
2023-05-22T12:46:05.002Z,4.30
2023-05-22T12:48:33.015Z,4.55
2023-05-22T12:51:01.098Z,4.53
2023-05-22T12:53:30.605Z,5.45
2023-05-22T12:55:58.627Z,4.60
2023-05-22T12:58:26.699Z,5.82
2023-05-22T13:00:55.022Z,4.88
2023-05-22T13:03:23.432Z,4.80
2023-05-22T13:05:51.489Z,5.25
2023-05-22T13:08:19.486Z,5.18
2023-05-22T13:10:48.948Z,5.20
2023-05-22T13:13:17.051Z,5.28
2023-05-22T13:15:45.161Z,5.47
2023-05-22T13:18:13.220Z,5.18
2023-05-22T13:20:41.366Z,5.60
2023-05-22T13:23:09.827Z,4.97
2023-05-22T13:25:38.021Z,5.30
2023-05-22T13:28:07.527Z,5.80
2023-05-22T13:30:35.635Z,5.90
2023-05-22T13:33:03.896Z,6.07
2023-05-22T13:35:32.150Z,5.95
2023-05-22T13:38:00.269Z,5.28
2023-05-22T13:40:28.440Z,5.07
2023-05-22T13:42:56.564Z,5.40
2023-05-22T13:45:27.305Z,5.38
2023-05-22T13:47:55.401Z,5.55
2023-05-22T13:50:23.618Z,5.60
2023-05-22T13:52:51.743Z,7.43
2023-05-22T13:55:19.869Z,5.15
2023-05-22T13:57:48.043Z,6.00
2023-05-22T14:00:16.813Z,5.35
2023-05-22T14:02:49.715Z,5.10
2023-05-22T14:05:18.119Z,5.80
2023-05-22T14:07:46.302Z,5.00
2023-05-22T14:10:14.535Z,5.75
2023-05-22T14:12:42.700Z,5.60
2023-05-22T14:15:11.665Z,4.72
2023-05-22T14:17:39.890Z,5.00
2023-05-22T14:20:10.415Z,5.20
2023-05-22T14:22:55.482Z,4.50
2023-05-22T14:25:25.459Z,4.97
2023-05-22T14:27:53.725Z,5.55
2023-05-22T14:30:21.893Z,4.93
2023-05-22T14:32:50.199Z,4.70
2023-05-22T14:35:19.698Z,4.88
2023-05-22T14:37:47.882Z,4.75
2023-05-22T14:40:15.908Z,5.03
2023-05-22T14:42:44.379Z,5.07
2023-05-22T14:45:13.004Z,4.70
2023-05-22T14:47:42.488Z,5.60
2023-05-22T14:50:19.004Z,4.78
2023-05-22T14:52:49.955Z,4.85
2023-05-22T14:55:18.803Z,5.28
2023-05-22T14:57:46.885Z,7.03
2023-05-22T15:00:16.237Z,4.85
2023-05-22T15:02:44.389Z,5.30
2023-05-22T15:05:12.634Z,4.82
2023-05-22T15:07:44.633Z,5.35
2023-05-22T15:10:15.235Z,4.50
2023-05-22T15:12:43.382Z,4.82
2023-05-22T15:15:12.420Z,4.95
2023-05-22T15:17:42.616Z,4.50
2023-05-22T15:20:12.102Z,4.80
2023-05-22T15:22:40.369Z,5.68
2023-05-22T15:25:11.880Z,4.70
2023-05-22T15:27:42.235Z,5.20
2023-05-22T15:30:12.187Z,4.82
2023-05-22T15:32:40.660Z,4.95
2023-05-22T15:35:10.265Z,4.75
2023-05-22T15:37:38.496Z,5.28
2023-05-22T15:40:09.759Z,5.15
2023-05-22T15:42:38.234Z,5.22
2023-05-22T15:45:09.331Z,5.28
2023-05-22T15:47:37.541Z,5.25
2023-05-22T15:50:06.489Z,4.63
2023-05-22T15:52:34.536Z,5.25
2023-05-22T15:55:02.857Z,5.25
2023-05-22T15:57:31.349Z,5.78
2023-05-22T15:59:59.479Z,5.95
2023-05-22T16:02:28.977Z,6.25
2023-05-22T16:04:57.286Z,5.80
2023-05-22T16:07:25.379Z,6.20
2023-05-22T16:09:53.660Z,6.38
2023-05-22T16:12:23.153Z,5.28
2023-05-22T16:14:51.879Z,5.05
2023-05-22T16:17:21.820Z,5.53
2023-05-22T16:19:52.291Z,5.60
2023-05-22T16:22:21.373Z,5.60
2023-05-22T16:24:49.457Z,6.10
2023-05-22T16:27:17.573Z,5.90
2023-05-22T16:29:45.736Z,6.45
2023-05-22T16:32:13.838Z,5.10
2023-05-22T16:34:41.847Z,5.53
2023-05-22T16:37:11.372Z,5.88
2023-05-22T16:39:39.960Z,5.05
2023-05-22T16:42:08.212Z,5.38
2023-05-22T16:44:36.268Z,5.30
2023-05-22T16:47:04.553Z,5.75
2023-05-22T16:49:32.662Z,5.28
2023-05-22T16:52:00.725Z,5.05
2023-05-22T16:54:30.170Z,5.13
2023-05-22T16:56:58.191Z,6.07
2023-05-22T16:59:26.273Z,6.40
2023-05-22T17:01:54.509Z,6.60
2023-05-22T17:04:22.553Z,6.38
2023-05-22T17:06:53.783Z,6.03
2023-05-22T17:09:21.871Z,7.43
2023-05-22T17:11:51.457Z,6.72
2023-05-22T17:14:21.754Z,6.90
2023-05-22T17:16:50.117Z,6.72
2023-05-22T17:19:18.567Z,7.35
2023-05-22T17:21:46.858Z,6.88
2023-05-22T17:24:15.098Z,7.97
2023-05-22T17:26:43.377Z,6.53
2023-05-22T17:29:12.836Z,7.68
2023-05-22T17:31:40.914Z,6.95
2023-05-22T17:34:09.088Z,6.25
2023-05-22T17:36:37.089Z,5.88
2023-05-22T17:39:05.387Z,6.65
2023-05-22T17:41:33.506Z,5.68
2023-05-22T17:44:01.986Z,5.60
2023-05-22T17:46:31.455Z,6.38
2023-05-22T17:48:59.676Z,5.57
2023-05-22T17:51:27.790Z,5.75
2023-05-22T17:53:56.508Z,6.57
2023-05-22T17:56:24.543Z,5.95
2023-05-22T17:58:52.632Z,6.10
2023-05-22T18:01:20.942Z,5.72
2023-05-22T18:03:50.569Z,6.20
2023-05-22T18:06:18.771Z,5.97
2023-05-22T18:08:47.784Z,6.22
2023-05-22T18:11:16.207Z,6.15
2023-05-22T18:13:44.338Z,6.15
2023-05-22T18:16:12.522Z,6.30
2023-05-22T18:18:43.717Z,6.70
2023-05-22T18:21:13.193Z,6.03
2023-05-22T18:23:41.270Z,7.43
2023-05-22T18:26:09.789Z,6.85
2023-05-22T18:28:37.856Z,6.50
2023-05-22T18:31:05.947Z,6.63
2023-05-22T18:33:46.645Z,6.88
2023-05-22T18:36:17.320Z,6.65
2023-05-22T18:38:45.418Z,6.93
2023-05-22T18:41:13.444Z,6.45
2023-05-22T18:43:41.518Z,6.30
2023-05-22T18:46:09.668Z,6.13
2023-05-22T18:48:37.830Z,5.55
2023-05-22T18:51:05.974Z,6.38
2023-05-22T18:53:35.462Z,5.95
2023-05-22T18:56:03.788Z,6.47
2023-05-22T18:58:31.985Z,6.35
2023-05-22T19:01:01.484Z,6.72
2023-05-22T19:03:29.630Z,5.95
2023-05-22T19:05:58.115Z,7.15
2023-05-22T19:08:26.831Z,6.00
2023-05-22T19:10:59.918Z,7.90
2023-05-22T19:13:29.304Z,9.82
2023-05-22T19:15:58.275Z,6.82
2023-05-22T19:18:27.495Z,8.00
2023-05-22T19:20:55.757Z,7.47
2023-05-22T19:23:23.774Z,7.78
2023-05-22T19:25:52.455Z,8.45
2023-05-22T19:28:22.025Z,8.07
2023-05-22T19:30:50.166Z,7.40
2023-05-22T19:33:18.906Z,7.28
2023-05-22T19:35:47.276Z,7.63
2023-05-22T19:38:15.636Z,7.80
2023-05-22T19:40:43.724Z,7.60
2023-05-22T19:43:12.012Z,7.45
2023-05-22T19:45:41.418Z,7.80
2023-05-22T19:48:09.603Z,7.57
2023-05-22T19:50:37.891Z,7.38
2023-05-22T19:53:06.316Z,8.90
2023-05-22T19:55:34.324Z,7.40
2023-05-22T19:58:02.409Z,7.68
2023-05-22T20:00:31.497Z,7.65
2023-05-22T20:03:01.157Z,7.82
2023-05-22T20:05:29.183Z,7.13
2023-05-22T20:07:59.109Z,7.30
2023-05-22T20:10:27.178Z,6.90
2023-05-22T20:12:56.089Z,7.00
2023-05-22T20:15:24.904Z,7.82
2023-05-22T20:17:54.484Z,9.18
2023-05-22T20:20:24.687Z,7.10
2023-05-22T20:22:53.982Z,7.30
2023-05-22T20:25:22.394Z,7.25
2023-05-22T20:27:50.745Z,6.80
2023-05-22T20:30:18.992Z,7.60
2023-05-22T20:32:47.138Z,7.50
2023-05-22T20:35:18.900Z,7.57
2023-05-22T20:37:48.607Z,7.75
2023-05-22T20:40:17.549Z,7.53
2023-05-22T20:42:47.593Z,6.97
2023-05-22T20:45:16.471Z,8.15
2023-05-22T20:47:44.991Z,7.25
2023-05-22T20:50:13.453Z,7.03
2023-05-22T20:52:41.529Z,7.20
2023-05-22T20:55:19.401Z,7.60
2023-05-22T20:57:49.579Z,7.30
2023-05-22T21:00:18.078Z,7.53
2023-05-22T21:02:46.463Z,7.20
2023-05-22T21:05:21.709Z,7.68
2023-05-22T21:07:49.893Z,9.57
2023-05-22T21:10:19.385Z,7.97
2023-05-22T21:12:47.463Z,7.63
2023-05-22T21:15:15.564Z,8.27
2023-05-22T21:17:43.807Z,7.97
2023-05-22T21:20:12.550Z,7.72
2023-05-22T21:22:40.563Z,7.90
2023-05-22T21:25:10.299Z,8.07
2023-05-22T21:27:39.727Z,7.60
2023-05-22T21:30:09.300Z,8.55
2023-05-22T21:32:38.129Z,7.88
2023-05-22T21:35:07.196Z,7.80
2023-05-22T21:37:35.302Z,8.63
2023-05-22T21:40:03.342Z,8.17
2023-05-22T21:42:41.864Z,7.87
2023-05-22T21:45:15.834Z,8.65
2023-05-22T21:47:44.019Z,8.63
2023-05-22T21:50:12.743Z,7.88
2023-05-22T21:52:40.866Z,8.32
2023-05-22T21:55:09.554Z,8.20
2023-05-22T21:57:37.826Z,8.53
2023-05-22T22:00:06.676Z,9.10
2023-05-22T22:02:36.364Z,8.63
2023-05-22T22:05:04.683Z,9.13
2023-05-22T22:07:32.759Z,8.87
2023-05-22T22:10:00.978Z,9.23
2023-05-22T22:12:29.005Z,8.93
2023-05-22T22:14:58.076Z,9.70
2023-05-22T22:17:26.293Z,10.07
2023-05-22T22:19:57.034Z,9.87
2023-05-22T22:22:26.194Z,9.20
2023-05-22T22:24:54.271Z,9.47
2023-05-22T22:27:22.446Z,9.90
2023-05-22T22:29:50.656Z,11.50
2023-05-22T22:32:18.826Z,9.83
2023-05-22T22:34:47.061Z,10.03
2023-05-22T22:37:17.591Z,10.57
2023-05-22T22:39:45.696Z,10.07
2023-05-22T22:42:13.714Z,10.23
2023-05-22T22:44:41.826Z,10.33
2023-05-22T22:47:09.896Z,9.87
2023-05-22T22:49:38.460Z,9.50
2023-05-22T22:52:07.660Z,9.57
2023-05-22T22:54:37.238Z,9.73
2023-05-22T22:57:05.726Z,9.77
2023-05-22T22:59:35.573Z,10.40
2023-05-22T23:02:03.675Z,10.60
2023-05-22T23:04:31.778Z,10.13
2023-05-22T23:06:59.848Z,10.47
2023-05-22T23:09:27.974Z,9.73
2023-05-22T23:11:57.389Z,10.83
2023-05-22T23:14:28.077Z,9.70
2023-05-22T23:16:56.180Z,9.90
2023-05-22T23:19:24.377Z,10.07
2023-05-22T23:21:53.691Z,10.20
2023-05-22T23:24:21.795Z,10.60
2023-05-22T23:26:49.764Z,10.83
2023-05-22T23:29:19.153Z,10.73
2023-05-22T23:31:47.587Z,11.20
2023-05-22T23:34:15.648Z,10.30
2023-05-22T23:36:43.707Z,11.00
2023-05-22T23:39:11.866Z,11.27
2023-05-22T23:41:39.938Z,11.53
2023-05-22T23:44:07.943Z,11.20
2023-05-22T23:46:39.722Z,11.33
2023-05-22T23:49:08.374Z,11.53
2023-05-22T23:51:36.675Z,11.30
2023-05-22T23:54:04.803Z,11.70
2023-05-22T23:56:32.870Z,11.27
2023-05-22T23:59:01.035Z,12.30
